Time;durP1;ratioP1;P1;durP2;ratioP2;P2;SDS_P1;SDS_P2;PMS_P1;PMS_P2;Temp;Humidity;BMP_temperature;BMP_pressure;BME280_temperature;BME280_humidity;BME280_pressure;Samples;Min_cycle;Max_cycle;Signal;HPM_P1;HPM_P2
2023/02/28 00:01:48;;;;;;;5.57;5.17;;;4.20;53.20;;;;;;6260230;28;20461;-67
2023/02/28 00:04:52;;;;;;;6.93;6.30;;;4.20;53.30;;;;;;6276969;28;20470;-67
2023/02/28 00:07:56;;;;;;;7.00;6.30;;;4.10;53.40;;;;;;6277004;28;20492;-67
2023/02/28 00:11:03;;;;;;;8.03;7.20;;;4.10;53.50;;;;;;6277600;28;20488;-67
2023/02/28 00:14:06;;;;;;;6.10;5.60;;;4.00;53.20;;;;;;6278314;28;20470;-67
2023/02/28 00:17:11;;;;;;;6.83;6.33;;;4.00;53.20;;;;;;6278269;28;20462;-67
2023/02/28 00:20:15;;;;;;;6.43;5.70;;;3.90;53.40;;;;;;6278078;28;20466;-67
2023/02/28 00:23:18;;;;;;;7.00;6.30;;;4.00;53.80;;;;;;6278080;28;20481;-66
2023/02/28 00:26:22;;;;;;;7.80;6.80;;;4.00;53.60;;;;;;6278200;28;20573;-66
2023/02/28 00:29:25;;;;;;;11.40;6.63;;;4.00;54.00;;;;;;6278393;28;20486;-66
2023/02/28 00:32:30;;;;;;;6.80;6.10;;;4.00;54.20;;;;;;6277838;28;20466;-62
2023/02/28 00:35:33;;;;;;;6.43;5.90;;;4.00;54.50;;;;;;6281364;28;20489;-66
2023/02/28 00:38:37;;;;;;;7.73;6.93;;;4.00;54.50;;;;;;6283728;28;20470;-62
2023/02/28 00:41:40;;;;;;;10.40;6.50;;;4.00;54.40;;;;;;6280411;28;20478;-67
2023/02/28 00:44:43;;;;;;;8.03;7.23;;;4.10;54.40;;;;;;6277758;28;20485;-67
2023/02/28 00:47:49;;;;;;;8.53;6.93;;;4.10;54.50;;;;;;6278137;28;20474;-67
2023/02/28 00:50:53;;;;;;;7.37;6.77;;;4.10;54.50;;;;;;6277918;28;20996;-62
2023/02/28 00:53:56;;;;;;;6.83;6.20;;;4.10;54.60;;;;;;6279390;28;20480;-67
2023/02/28 00:56:59;;;;;;;5.80;5.33;;;4.10;54.70;;;;;;6277602;28;20469;-66
2023/02/28 01:00:03;;;;;;;7.17;6.47;;;4.10;54.80;;;;;;6284031;28;20466;-66
2023/02/28 01:03:08;;;;;;;7.00;6.40;;;4.10;54.80;;;;;;6281572;28;20965;-66
2023/02/28 01:06:11;;;;;;;7.33;6.47;;;4.10;54.80;;;;;;6276139;28;20864;-66
2023/02/28 01:09:14;;;;;;;10.47;6.90;;;4.10;55.00;;;;;;6276580;28;20486;-66
2023/02/28 01:12:17;;;;;;;6.90;6.20;;;4.10;55.10;;;;;;6276865;28;20451;-66
2023/02/28 01:15:20;;;;;;;8.63;6.50;;;4.10;55.10;;;;;;6276586;28;20778;-66
2023/02/28 01:18:25;;;;;;;8.00;7.20;;;4.10;55.20;;;;;;6277465;28;20459;-65
2023/02/28 01:21:29;;;;;;;13.40;12.10;;;4.10;55.00;;;;;;6276175;28;20462;-66
2023/02/28 01:24:34;;;;;;;10.60;9.60;;;4.10;55.00;;;;;;6277866;28;20470;-66
2023/02/28 01:27:39;;;;;;;10.23;9.20;;;4.00;54.80;;;;;;6276454;28;20783;-66
2023/02/28 01:30:42;;;;;;;9.90;9.00;;;4.10;54.80;;;;;;6276104;28;20482;-66
2023/02/28 01:33:47;;;;;;;8.43;7.00;;;4.00;54.80;;;;;;6276636;28;20476;-66
2023/02/28 01:36:50;;;;;;;7.10;6.40;;;4.00;55.00;;;;;;6275849;28;20969;-66
2023/02/28 01:39:53;;;;;;;7.73;7.13;;;4.10;55.20;;;;;;6275822;28;20473;-66
2023/02/28 01:42:56;;;;;;;6.43;5.93;;;4.10;55.30;;;;;;6275899;28;20473;-66
2023/02/28 01:46:00;;;;;;;7.43;6.83;;;4.10;55.90;;;;;;6276031;28;20485;-67
2023/02/28 01:49:09;;;;;;;6.80;6.30;;;4.10;55.20;;;;;;6281666;28;20520;-66
2023/02/28 01:52:17;;;;;;;6.77;6.17;;;4.10;55.40;;;;;;6280053;28;20974;-66
2023/02/28 01:55:23;;;;;;;6.50;5.90;;;4.10;55.50;;;;;;6276035;28;20471;-67
2023/02/28 01:58:26;;;;;;;6.60;6.00;;;4.10;55.40;;;;;;6276195;28;20471;-67
2023/02/28 02:01:31;;;;;;;7.73;6.07;;;4.00;55.30;;;;;;6275657;28;20790;-67
2023/02/28 02:04:42;;;;;;;6.63;5.93;;;4.10;55.20;;;;;;6275615;28;20470;-67
2023/02/28 02:07:49;;;;;;;6.60;6.10;;;4.00;55.20;;;;;;6275643;28;20783;-67
2023/02/28 02:10:55;;;;;;;7.57;6.77;;;4.00;55.40;;;;;;6276318;28;20474;-66
2023/02/28 02:14:21;;;;;;;6.20;5.70;;;3.90;55.70;;;;;;6277800;28;20470;-66
2023/02/28 02:17:32;;;;;;;6.40;5.90;;;3.90;56.30;;;;;;6275546;28;20474;-66
2023/02/28 02:20:59;;;;;;;7.27;6.67;;;3.80;56.80;;;;;;6277224;28;20894;-67
2023/02/28 02:24:47;;;;;;;6.40;5.80;;;3.80;56.50;;;;;;6275747;28;20466;-67
2023/02/28 02:28:12;;;;;;;6.60;6.00;;;3.70;56.60;;;;;;6275393;28;20473;-67
2023/02/28 02:31:36;;;;;;;7.00;6.40;;;3.70;57.20;;;;;;6274848;28;20485;-67
2023/02/28 02:34:47;;;;;;;7.53;6.93;;;3.70;57.30;;;;;;6275061;28;20555;-67
2023/02/28 02:38:00;;;;;;;5.50;5.10;;;3.70;57.50;;;;;;6274963;28;20492;-67
2023/02/28 02:41:11;;;;;;;8.67;6.90;;;3.60;57.20;;;;;;6274797;28;20477;-67
2023/02/28 02:44:22;;;;;;;6.63;6.13;;;3.60;57.00;;;;;;6265329;28;20470;-67
2023/02/28 02:47:30;;;;;;;6.93;6.43;;;3.60;57.20;;;;;;6274725;28;20478;-67
2023/02/28 02:50:38;;;;;;;6.47;5.87;;;3.60;57.30;;;;;;6274723;28;20493;-67
2023/02/28 02:53:46;;;;;;;6.43;5.93;;;3.60;57.60;;;;;;6274782;28;20481;-67
2023/02/28 02:56:52;;;;;;;6.93;6.23;;;3.60;57.80;;;;;;6274807;28;20477;-66
2023/02/28 02:59:57;;;;;;;6.53;5.93;;;3.60;57.60;;;;;;6274723;28;20481;-66
2023/02/28 03:03:02;;;;;;;8.27;6.63;;;3.60;57.70;;;;;;6274497;28;20961;-66
2023/02/28 03:06:08;;;;;;;7.13;6.63;;;3.60;57.50;;;;;;6274619;28;21003;-66
2023/02/28 03:09:11;;;;;;;7.33;6.73;;;3.50;57.40;;;;;;6274537;28;20477;-65
2023/02/28 03:12:14;;;;;;;8.27;7.07;;;3.40;57.80;;;;;;6275026;28;20474;-66
2023/02/28 03:15:25;;;;;;;8.60;7.67;;;3.30;58.50;;;;;;6275102;28;20442;-66
2023/02/28 03:18:35;;;;;;;8.13;7.20;;;3.30;58.70;;;;;;6274534;28;20906;-67
2023/02/28 03:21:45;;;;;;;7.73;6.93;;;3.30;58.70;;;;;;6274847;28;20477;-67
2023/02/28 03:24:56;;;;;;;9.77;7.47;;;3.40;59.00;;;;;;6274580;28;20543;-66
2023/02/28 03:28:08;;;;;;;7.97;7.33;;;3.40;58.80;;;;;;6275518;28;20830;-66
2023/02/28 03:31:19;;;;;;;8.27;7.60;;;3.20;59.10;;;;;;6275154;28;20479;-67
2023/02/28 03:34:27;;;;;;;8.97;7.77;;;3.20;59.30;;;;;;6275331;28;20458;-68
2023/02/28 03:37:35;;;;;;;9.10;7.83;;;3.20;59.60;;;;;;6276187;28;20807;-68
2023/02/28 03:40:42;;;;;;;8.77;7.30;;;3.30;59.50;;;;;;6276190;28;20466;-68
2023/02/28 03:43:51;;;;;;;9.63;6.57;;;3.30;59.60;;;;;;6278564;28;20477;-62
2023/02/28 03:47:01;;;;;;;7.77;7.07;;;3.30;59.50;;;;;;6276413;28;20466;-62
2023/02/28 03:50:09;;;;;;;8.43;7.63;;;3.20;59.80;;;;;;6280229;28;20493;-62
2023/02/28 03:53:17;;;;;;;8.00;7.20;;;3.20;59.80;;;;;;6279701;28;20477;-62
2023/02/28 03:56:24;;;;;;;8.03;7.33;;;3.20;60.00;;;;;;6278917;28;20478;-62
2023/02/28 03:59:31;;;;;;;9.43;8.63;;;3.20;60.10;;;;;;6280612;28;20480;-62
2023/02/28 04:02:35;;;;;;;10.13;8.23;;;3.20;60.30;;;;;;6281485;28;20466;-62
2023/02/28 04:05:50;;;;;;;7.73;7.13;;;3.30;60.10;;;;;;6278889;28;20466;-62
2023/02/28 04:08:55;;;;;;;9.30;7.97;;;3.30;60.20;;;;;;6278172;28;20512;-62
2023/02/28 04:11:59;;;;;;;7.90;7.30;;;3.30;60.40;;;;;;6278015;28;20474;-63
2023/02/28 04:15:02;;;;;;;10.60;7.43;;;3.40;60.50;;;;;;6278038;28;20478;-63
2023/02/28 04:18:05;;;;;;;8.87;8.07;;;3.50;60.60;;;;;;6277760;28;20470;-63
2023/02/28 04:21:08;;;;;;;8.60;7.80;;;3.50;60.50;;;;;;6277818;28;20461;-63
2023/02/28 04:24:15;;;;;;;8.00;7.30;;;3.60;60.20;;;;;;6277648;28;20916;-62
2023/02/28 04:27:19;;;;;;;11.07;8.90;;;3.60;60.00;;;;;;6277483;28;20767;-63
2023/02/28 04:30:22;;;;;;;7.77;6.73;;;3.60;60.10;;;;;;6277337;28;20786;-62
2023/02/28 04:33:25;;;;;;;8.33;7.57;;;3.70;60.10;;;;;;6277878;28;20438;-64
2023/02/28 04:36:29;;;;;;;7.80;7.00;;;3.70;59.90;;;;;;6277374;28;20771;-63
2023/02/28 04:39:36;;;;;;;8.30;7.60;;;3.70;59.80;;;;;;6277176;28;20806;-63
2023/02/28 04:42:39;;;;;;;10.60;7.70;;;3.70;59.60;;;;;;6277444;28;20474;-63
2023/02/28 04:45:43;;;;;;;9.03;6.90;;;3.70;59.90;;;;;;6277421;28;20528;-63
2023/02/28 04:48:46;;;;;;;8.30;7.23;;;3.70;59.40;;;;;;6277049;28;20780;-63
2023/02/28 04:51:49;;;;;;;8.40;7.70;;;3.70;59.40;;;;;;6276771;28;20474;-63
2023/02/28 04:54:54;;;;;;;9.70;8.70;;;3.70;59.10;;;;;;6276619;28;20488;-63
2023/02/28 04:57:57;;;;;;;9.90;8.20;;;3.80;59.00;;;;;;6277177;28;20473;-62
2023/02/28 05:01:04;;;;;;;10.00;9.00;;;3.80;59.00;;;;;;6276966;28;20474;-63
2023/02/28 05:04:08;;;;;;;8.43;7.63;;;3.80;59.00;;;;;;6276916;28;20779;-63
2023/02/28 05:07:11;;;;;;;8.73;7.93;;;3.70;58.70;;;;;;6276725;28;20485;-64
2023/02/28 05:10:15;;;;;;;8.20;7.40;;;3.70;58.90;;;;;;6276763;28;20477;-63
2023/02/28 05:13:19;;;;;;;9.47;8.40;;;3.70;59.50;;;;;;6276563;28;20478;-62
2023/02/28 05:16:22;;;;;;;9.30;7.87;;;3.60;58.90;;;;;;6276583;28;20965;-66
2023/02/28 05:19:25;;;;;;;9.60;8.33;;;3.70;58.90;;;;;;6276495;28;20830;-63
2023/02/28 05:22:28;;;;;;;9.40;8.50;;;3.70;58.90;;;;;;6276813;28;20478;-66
2023/02/28 05:25:33;;;;;;;11.33;7.70;;;3.80;59.00;;;;;;6276189;28;20477;-63
2023/02/28 05:28:36;;;;;;;8.60;7.70;;;3.80;59.00;;;;;;6276027;28;20478;-63
2023/02/28 05:31:39;;;;;;;8.80;7.90;;;3.80;59.00;;;;;;6276305;28;20477;-63
2023/02/28 05:34:43;;;;;;;9.93;8.73;;;3.80;59.00;;;;;;6276301;28;20485;-67
2023/02/28 05:37:46;;;;;;;12.07;9.13;;;3.80;59.30;;;;;;6276327;28;20473;-66
2023/02/28 05:40:51;;;;;;;11.23;8.80;;;3.70;59.30;;;;;;6275973;28;20478;-62
2023/02/28 05:43:54;;;;;;;9.20;8.27;;;3.70;59.50;;;;;;6279562;28;20466;-67
2023/02/28 05:46:58;;;;;;;10.20;9.17;;;3.70;59.50;;;;;;6276863;28;20481;-66
2023/02/28 05:50:01;;;;;;;9.33;8.47;;;3.80;59.70;;;;;;6276440;28;20477;-67
2023/02/28 05:53:04;;;;;;;11.20;8.03;;;3.70;59.70;;;;;;6275901;28;20466;-66
2023/02/28 05:56:09;;;;;;;9.00;8.10;;;3.80;59.80;;;;;;6276125;28;20466;-67
2023/02/28 05:59:13;;;;;;;11.60;9.03;;;3.80;59.80;;;;;;6276497;28;20481;-67
2023/02/28 06:02:18;;;;;;;11.00;8.47;;;3.80;59.70;;;;;;6277318;28;20462;-67
2023/02/28 06:05:22;;;;;;;11.23;9.60;;;3.80;59.80;;;;;;6275560;28;20604;-67
2023/02/28 06:08:25;;;;;;;10.33;8.97;;;3.80;59.70;;;;;;6276304;28;20491;-66
2023/02/28 06:11:29;;;;;;;9.87;8.63;;;3.80;59.80;;;;;;6280810;28;20539;-66
2023/02/28 06:14:34;;;;;;;13.30;8.20;;;3.80;59.90;;;;;;6283079;28;20482;-66
2023/02/28 06:17:37;;;;;;;10.73;9.67;;;3.80;59.80;;;;;;6275479;28;20482;-66
2023/02/28 06:20:42;;;;;;;9.67;8.70;;;3.80;60.00;;;;;;6276091;28;20485;-63
2023/02/28 06:23:45;;;;;;;9.90;8.90;;;3.80;60.00;;;;;;6274941;28;20481;-68
2023/02/28 06:26:50;;;;;;;9.67;8.67;;;3.80;60.20;;;;;;6274998;28;20751;-66
2023/02/28 06:29:55;;;;;;;15.07;9.33;;;3.80;60.10;;;;;;6274944;28;20474;-67
2023/02/28 06:32:58;;;;;;;10.60;9.57;;;3.80;60.20;;;;;;6274974;28;20485;-67
2023/02/28 06:36:02;;;;;;;11.37;9.70;;;3.80;60.20;;;;;;6274736;28;20941;-64
2023/02/28 06:39:05;;;;;;;11.00;9.80;;;3.80;60.60;;;;;;6273912;28;20486;-62
2023/02/28 06:42:10;;;;;;;11.47;9.47;;;3.60;60.40;;;;;;6274966;28;20454;-61
2023/02/28 06:45:13;;;;;;;13.00;9.50;;;3.70;61.20;;;;;;6275417;28;20449;-62
2023/02/28 06:48:17;;;;;;;14.83;9.50;;;3.70;61.10;;;;;;6274762;28;20462;-62
2023/02/28 06:51:22;;;;;;;10.70;8.90;;;3.70;61.30;;;;;;6274868;28;20445;-61
2023/02/28 06:54:25;;;;;;;13.27;10.57;;;3.80;61.40;;;;;;6274686;28;20557;-62
2023/02/28 06:57:31;;;;;;;11.30;10.10;;;3.90;61.30;;;;;;6266742;28;20793;-67
2023/02/28 07:00:35;;;;;;;11.87;9.73;;;3.80;61.00;;;;;;6276165;28;20466;-64
2023/02/28 07:03:38;;;;;;;11.20;10.10;;;3.80;61.10;;;;;;6274696;28;20481;-63
2023/02/28 07:06:41;;;;;;;10.53;9.53;;;3.70;61.40;;;;;;6274689;28;20470;-62
2023/02/28 07:09:44;;;;;;;11.93;10.63;;;3.70;61.70;;;;;;6274572;28;20480;-62
2023/02/28 07:12:49;;;;;;;12.13;9.33;;;3.80;61.90;;;;;;6274469;28;20466;-62
2023/02/28 07:15:56;;;;;;;13.70;9.97;;;3.70;62.00;;;;;;6274350;28;20470;-62
2023/02/28 07:18:59;;;;;;;11.57;10.40;;;3.70;61.60;;;;;;6278241;28;20473;-62
2023/02/28 07:22:03;;;;;;;9.63;8.60;;;3.80;61.70;;;;;;6279271;28;20469;-62
2023/02/28 07:25:07;;;;;;;11.67;9.70;;;3.80;61.70;;;;;;6279570;28;20466;-66
2023/02/28 07:28:11;;;;;;;12.60;9.60;;;3.80;62.10;;;;;;6285561;28;20489;-66
2023/02/28 07:31:15;;;;;;;10.77;9.67;;;3.90;62.00;;;;;;6280331;28;20469;-63
2023/02/28 07:34:18;;;;;;;17.83;10.50;;;3.80;62.10;;;;;;6279485;28;20546;-62
2023/02/28 07:37:22;;;;;;;12.10;9.40;;;3.90;62.30;;;;;;6279030;28;20945;-62
2023/02/28 07:40:25;;;;;;;11.20;10.07;;;4.00;62.40;;;;;;6278096;28;20490;-62
2023/02/28 07:43:30;;;;;;;12.67;9.70;;;4.00;62.00;;;;;;6277574;28;20809;-67
2023/02/28 07:46:35;;;;;;;10.93;9.90;;;4.10;61.90;;;;;;6278048;28;20481;-68
2023/02/28 07:49:39;;;;;;;11.37;9.43;;;4.10;62.00;;;;;;6278889;28;20481;-67
2023/02/28 07:52:42;;;;;;;10.43;9.33;;;4.10;62.30;;;;;;6278104;28;20496;-67
2023/02/28 07:55:46;;;;;;;15.37;12.07;;;4.10;61.90;;;;;;6275795;28;20469;-67
2023/02/28 07:58:51;;;;;;;9.40;8.50;;;4.20;62.00;;;;;;6277900;28;20482;-68
2023/02/28 08:01:54;;;;;;;12.37;10.23;;;4.20;62.00;;;;;;6268982;28;20481;-66
2023/02/28 08:04:57;;;;;;;10.20;9.20;;;4.10;61.80;;;;;;6277201;28;20563;-65
2023/02/28 08:08:00;;;;;;;11.63;10.47;;;4.10;61.90;;;;;;6277619;28;20469;-65
2023/02/28 08:11:04;;;;;;;13.50;10.53;;;4.10;63.20;;;;;;6278371;28;20470;-66
2023/02/28 08:14:08;;;;;;;12.33;9.77;;;4.10;64.40;;;;;;6277825;28;20472;-66
2023/02/28 08:17:12;;;;;;;14.67;9.97;;;4.20;63.80;;;;;;6277819;28;20961;-66
2023/02/28 08:20:15;;;;;;;15.10;10.10;;;4.10;64.60;;;;;;6277902;28;20480;-65
2023/02/28 08:23:18;;;;;;;11.57;10.00;;;4.10;64.50;;;;;;6277730;28;20466;-66
2023/02/28 08:26:22;;;;;;;10.80;9.70;;;4.10;64.30;;;;;;6276846;28;20942;-66
2023/02/28 08:29:26;;;;;;;9.77;8.83;;;4.30;63.80;;;;;;6275396;28;20964;-67
2023/02/28 08:32:29;;;;;;;11.33;10.10;;;4.40;63.20;;;;;;6277179;28;20969;-67
2023/02/28 08:35:33;;;;;;;14.10;10.27;;;4.50;62.30;;;;;;6277404;28;20553;-67
2023/02/28 08:38:36;;;;;;;12.30;9.00;;;4.70;62.10;;;;;;6276578;28;20512;-66
2023/02/28 08:41:39;;;;;;;14.40;10.97;;;4.70;61.80;;;;;;6277809;28;20485;-67
2023/02/28 08:44:44;;;;;;;13.03;10.40;;;4.70;61.30;;;;;;6278972;28;20477;-67
2023/02/28 08:47:47;;;;;;;11.87;9.60;;;4.60;61.70;;;;;;6277169;28;20489;-66
2023/02/28 08:50:57;;;;;;;13.53;10.87;;;4.70;61.60;;;;;;6277479;28;20477;-66
2023/02/28 08:54:12;;;;;;;11.03;9.90;;;4.80;61.50;;;;;;6277210;28;20875;-67
2023/02/28 08:57:15;;;;;;;14.20;9.50;;;4.80;61.00;;;;;;6276473;28;20450;-66
2023/02/28 09:00:21;;;;;;;11.30;10.03;;;4.80;61.00;;;;;;6277169;28;20442;-67
2023/02/28 09:03:24;;;;;;;10.73;9.63;;;4.80;60.60;;;;;;6272872;28;20426;-67
2023/02/28 09:06:28;;;;;;;13.10;11.00;;;4.80;60.70;;;;;;6276811;28;20534;-67
2023/02/28 09:09:32;;;;;;;11.70;10.50;;;4.80;60.60;;;;;;6276760;28;20532;-67
2023/02/28 09:12:36;;;;;;;12.57;10.40;;;4.60;61.00;;;;;;6277161;28;20474;-67
2023/02/28 09:15:40;;;;;;;12.13;10.73;;;4.70;61.40;;;;;;6276523;28;20478;-67
2023/02/28 09:18:45;;;;;;;12.77;10.27;;;4.80;60.80;;;;;;6276730;28;20482;-67
2023/02/28 09:21:48;;;;;;;11.63;9.67;;;4.90;60.50;;;;;;6276459;28;20796;-67
2023/02/28 09:24:51;;;;;;;11.77;10.23;;;5.10;60.70;;;;;;6276355;28;20802;-67
2023/02/28 09:27:54;;;;;;;12.73;9.73;;;5.20;60.50;;;;;;6276185;28;20474;-67
2023/02/28 09:30:59;;;;;;;13.37;10.90;;;5.20;60.00;;;;;;6276633;28;20474;-67
2023/02/28 09:34:02;;;;;;;13.20;11.07;;;5.30;59.80;;;;;;6276569;28;20817;-67
2023/02/28 09:37:06;;;;;;;11.40;10.20;;;5.40;59.50;;;;;;6277136;28;20553;-65
2023/02/28 09:40:11;;;;;;;13.80;11.07;;;5.40;59.40;;;;;;6275101;28;20478;-71
2023/02/28 09:43:17;;;;;;;13.70;10.60;;;5.40;58.80;;;;;;6275864;28;20478;-67
2023/02/28 09:46:33;;;;;;;11.53;10.40;;;5.20;59.00;;;;;;6276066;28;20982;-67
2023/02/28 09:49:41;;;;;;;13.23;11.83;;;5.20;59.20;;;;;;6275607;28;20481;-67
2023/02/28 09:52:49;;;;;;;12.83;11.30;;;5.30;59.50;;;;;;6275776;28;20474;-67
2023/02/28 09:55:56;;;;;;;11.13;10.00;;;5.40;59.50;;;;;;6275511;28;20470;-67
2023/02/28 09:59:04;;;;;;;18.17;15.07;;;5.30;59.50;;;;;;6275514;28;20493;-67
2023/02/28 10:02:20;;;;;;;12.77;11.47;;;5.40;59.40;;;;;;6275236;28;20961;-68
2023/02/28 10:05:27;;;;;;;12.53;11.30;;;5.60;59.50;;;;;;6275192;28;20470;-67
2023/02/28 10:08:36;;;;;;;12.53;11.23;;;5.80;58.80;;;;;;6265626;28;20802;-67
2023/02/28 10:11:40;;;;;;;13.13;11.20;;;6.00;58.50;;;;;;6274940;28;20462;-67
2023/02/28 10:14:48;;;;;;;13.03;11.13;;;6.20;57.80;;;;;;6274693;28;20485;-67
2023/02/28 10:17:57;;;;;;;11.43;10.23;;;6.40;57.40;;;;;;6274645;28;20481;-67
2023/02/28 10:21:19;;;;;;;12.70;11.50;;;6.40;57.00;;;;;;6274189;28;20454;-67
2023/02/28 10:24:31;;;;;;;13.73;10.87;;;6.60;56.80;;;;;;6274952;28;20819;-66
2023/02/28 10:27:35;;;;;;;12.40;11.10;;;6.60;57.20;;;;;;6274158;28;20458;-66
2023/02/28 10:30:44;;;;;;;14.00;11.27;;;6.70;56.20;;;;;;6274189;28;20768;-67
2023/02/28 10:33:49;;;;;;;12.30;11.00;;;6.90;55.90;;;;;;6274679;28;20471;-66
2023/02/28 10:36:53;;;;;;;12.10;10.30;;;6.80;55.40;;;;;;6274473;28;20484;-67
2023/02/28 10:39:56;;;;;;;15.57;10.60;;;6.70;55.60;;;;;;6274241;28;20797;-67
2023/02/28 10:43:01;;;;;;;11.20;10.00;;;6.80;55.60;;;;;;6274111;28;20980;-67
2023/02/28 10:46:14;;;;;;;12.50;11.17;;;7.00;55.40;;;;;;6274328;28;20485;-67
2023/02/28 10:49:22;;;;;;;14.90;11.67;;;7.00;55.00;;;;;;6273785;28;20532;-67
2023/02/28 10:52:39;;;;;;;13.00;11.63;;;7.00;54.80;;;;;;6272191;28;20831;-67
2023/02/28 10:55:43;;;;;;;15.50;12.97;;;7.10;54.70;;;;;;6274158;28;20478;-67
2023/02/28 10:58:50;;;;;;;15.30;12.60;;;7.00;54.60;;;;;;6271144;28;20481;-67
2023/02/28 11:01:53;;;;;;;13.83;11.73;;;6.80;55.00;;;;;;6275011;28;20470;-66
2023/02/28 11:04:58;;;;;;;19.47;13.40;;;6.90;55.10;;;;;;6273531;28;20938;-66
2023/02/28 11:08:07;;;;;;;14.30;12.07;;;6.90;54.80;;;;;;6258908;28;20488;-66
2023/02/28 11:11:10;;;;;;;13.20;11.80;;;6.80;54.50;;;;;;6273828;28;20484;-67
2023/02/28 11:14:21;;;;;;;14.17;12.67;;;6.50;55.00;;;;;;6273936;28;20478;-67
2023/02/28 11:17:27;;;;;;;14.57;12.77;;;6.60;55.70;;;;;;6274056;28;20474;-67
2023/02/28 11:20:34;;;;;;;17.87;12.57;;;7.20;55.50;;;;;;6274120;28;20497;-67
2023/02/28 11:23:41;;;;;;;13.80;12.30;;;7.70;54.00;;;;;;6273966;28;21065;-68
2023/02/28 11:26:46;;;;;;;15.67;11.60;;;8.40;53.60;;;;;;6264465;28;20482;-68
2023/02/28 11:29:49;;;;;;;28.00;14.23;;;9.30;51.70;;;;;;6248846;28;20490;-67
2023/02/28 11:32:53;;;;;;;12.97;11.70;;;10.30;49.20;;;;;;6249090;28;20483;-67
2023/02/28 11:36:01;;;;;;;14.83;13.37;;;11.30;46.80;;;;;;6248863;28;20977;-67
2023/02/28 11:39:11;;;;;;;15.60;11.93;;;11.80;45.70;;;;;;6263475;28;20474;-67
2023/02/28 11:42:44;;;;;;;17.57;13.40;;;12.30;44.70;;;;;;6272733;28;20473;-67
2023/02/28 11:46:03;;;;;;;15.53;13.83;;;12.00;43.30;;;;;;6270610;28;20524;-61
2023/02/28 11:49:34;;;;;;;19.73;13.00;;;12.10;44.00;;;;;;6272485;28;20478;-61
2023/02/28 11:52:44;;;;;;;15.73;12.60;;;12.10;43.90;;;;;;6269076;28;20485;-65
2023/02/28 11:55:53;;;;;;;15.03;13.47;;;12.10;43.70;;;;;;6270153;28;20949;-65
2023/02/28 11:59:10;;;;;;;15.17;13.27;;;12.10;43.40;;;;;;6273939;28;20531;-67
2023/02/28 12:02:34;;;;;;;16.77;12.80;;;11.90;42.90;;;;;;6271566;28;20482;-67
2023/02/28 12:05:45;;;;;;;15.23;12.17;;;11.60;43.00;;;;;;6273104;28;20481;-67
2023/02/28 12:09:01;;;;;;;15.50;12.87;;;11.40;43.90;;;;;;6274763;28;20481;-67
2023/02/28 12:12:15;;;;;;;13.70;12.00;;;11.40;44.00;;;;;;6274229;28;20465;-68
2023/02/28 12:15:33;;;;;;;13.73;11.83;;;11.70;43.70;;;;;;6274859;28;20824;-68
2023/02/28 12:18:52;;;;;;;18.03;13.73;;;11.90;43.30;;;;;;6276134;28;20470;-67
2023/02/28 12:22:20;;;;;;;14.37;12.53;;;12.10;43.20;;;;;;6252609;28;20475;-67
2023/02/28 12:25:48;;;;;;;15.27;13.67;;;12.00;43.00;;;;;;6246079;28;20941;-67
2023/02/28 12:28:57;;;;;;;18.40;13.60;;;12.00;43.00;;;;;;6264721;28;20469;-66
2023/02/28 12:32:05;;;;;;;15.60;13.70;;;11.70;43.40;;;;;;6277236;28;20466;-66
2023/02/28 12:35:15;;;;;;;15.40;13.90;;;11.30;43.70;;;;;;6277767;28;20488;-66
2023/02/28 12:38:23;;;;;;;16.50;13.30;;;10.80;44.40;;;;;;6277013;28;20482;-66
2023/02/28 12:41:37;;;;;;;13.63;12.20;;;10.50;45.30;;;;;;6276789;28;20489;-66
2023/02/28 12:44:46;;;;;;;15.40;13.90;;;10.10;45.90;;;;;;6276892;28;20474;-64
2023/02/28 12:47:53;;;;;;;17.97;14.97;;;9.40;48.20;;;;;;6279665;28;20474;-63
2023/02/28 12:50:57;;;;;;;16.10;14.17;;;8.40;50.00;;;;;;6276716;28;20988;-62
2023/02/28 12:54:10;;;;;;;22.17;15.60;;;8.30;51.40;;;;;;6276436;28;20496;-64
2023/02/28 12:57:19;;;;;;;16.73;14.20;;;8.30;52.50;;;;;;6276346;28;20450;-60
2023/02/28 13:00:26;;;;;;;20.70;15.47;;;8.90;51.60;;;;;;6276194;28;20935;-62
2023/02/28 13:03:52;;;;;;;17.57;14.07;;;9.50;50.80;;;;;;6275864;28;20443;-62
2023/02/28 13:07:21;;;;;;;16.77;13.87;;;10.10;48.50;;;;;;6276178;28;20462;-64
2023/02/28 13:10:25;;;;;;;17.63;14.10;;;10.40;47.40;;;;;;6274561;28;20462;-63
2023/02/28 13:13:31;;;;;;;15.30;13.67;;;10.30;46.90;;;;;;6279634;28;20780;-64
2023/02/28 13:16:58;;;;;;;17.80;14.37;;;10.40;47.20;;;;;;6268273;28;20466;-65
2023/02/28 13:20:01;;;;;;;16.07;14.10;;;10.00;47.80;;;;;;6272784;28;20532;-63
2023/02/28 13:23:25;;;;;;;18.70;14.93;;;9.80;49.60;;;;;;6274662;28;20801;-63
2023/02/28 13:27:04;;;;;;;17.93;14.37;;;9.50;49.40;;;;;;6273365;28;20485;-64
2023/02/28 13:30:59;;;;;;;14.30;12.70;;;9.40;50.70;;;;;;6250962;28;20467;-64
2023/02/28 13:34:14;;;;;;;17.07;15.23;;;9.70;50.00;;;;;;6166859;28;21024;-62
2023/02/28 13:37:38;;;;;;;16.50;14.70;;;9.50;50.60;;;;;;6165937;28;20488;-60
2023/02/28 13:40:41;;;;;;;19.00;14.60;;;9.30;50.80;;;;;;6272796;28;20474;-60
2023/02/28 13:44:05;;;;;;;16.83;14.00;;;9.50;50.70;;;;;;6274519;28;20807;-61
2023/02/28 13:47:25;;;;;;;16.30;13.90;;;9.40;51.10;;;;;;6273614;28;20470;-62
2023/02/28 13:50:34;;;;;;;16.93;13.70;;;9.30;51.30;;;;;;6273777;28;20466;-60
2023/02/28 13:53:57;;;;;;;18.40;15.03;;;9.20;51.50;;;;;;6273328;28;20982;-59
2023/02/28 13:57:18;;;;;;;14.57;13.13;;;9.30;51.60;;;;;;6265178;28;20483;-62
2023/02/28 14:00:33;;;;;;;15.87;13.90;;;10.10;50.20;;;;;;6273451;28;20450;-61
2023/02/28 14:03:55;;;;;;;16.07;13.80;;;10.30;48.70;;;;;;6275067;28;20485;-63
2023/02/28 14:07:00;;;;;;;16.40;12.90;;;10.80;48.70;;;;;;6262325;28;20467;-62
2023/02/28 14:10:08;;;;;;;16.00;13.43;;;10.50;48.50;;;;;;6273568;28;20953;-61
2023/02/28 14:13:43;;;;;;;14.00;12.13;;;10.40;48.40;;;;;;6269201;28;20745;-61
2023/02/28 14:16:49;;;;;;;18.37;13.03;;;9.80;50.00;;;;;;6274892;28;20931;-61
2023/02/28 14:19:53;;;;;;;15.43;12.60;;;9.30;51.20;;;;;;6265164;28;20559;-65
2023/02/28 14:23:10;;;;;;;17.30;13.37;;;9.10;51.90;;;;;;6273899;28;20489;-65
2023/02/28 14:26:29;;;;;;;15.60;12.50;;;9.10;51.70;;;;;;6272140;28;20485;-62
2023/02/28 14:29:59;;;;;;;15.73;13.27;;;9.10;51.80;;;;;;6272465;28;20493;-66
2023/02/28 14:33:16;;;;;;;13.70;12.30;;;9.20;52.60;;;;;;6273471;28;20465;-65
2023/02/28 14:36:23;;;;;;;15.83;11.60;;;8.80;51.90;;;;;;6274021;28;20462;-65
2023/02/28 14:39:30;;;;;;;14.77;13.27;;;8.70;52.20;;;;;;6275207;28;20474;-66
2023/02/28 14:42:35;;;;;;;17.60;13.67;;;8.70;52.20;;;;;;6278843;28;20472;-66
2023/02/28 14:45:38;;;;;;;14.77;12.23;;;8.50;53.00;;;;;;6274427;28;20477;-65
2023/02/28 14:48:42;;;;;;;15.33;12.63;;;8.60;52.70;;;;;;6273746;28;20972;-65
2023/02/28 14:51:47;;;;;;;12.60;11.30;;;8.50;52.80;;;;;;6273980;28;20478;-63
2023/02/28 14:54:56;;;;;;;18.27;13.40;;;8.40;53.00;;;;;;6274155;28;20477;-62
2023/02/28 14:58:02;;;;;;;15.87;13.30;;;8.20;52.90;;;;;;6274111;28;20528;-65
2023/02/28 15:01:07;;;;;;;17.43;13.50;;;8.20;53.50;;;;;;6273894;28;20474;-64
2023/02/28 15:04:22;;;;;;;15.57;12.93;;;8.10;53.50;;;;;;6273538;28;20470;-62
2023/02/28 15:07:29;;;;;;;19.03;13.70;;;8.10;53.50;;;;;;6273810;28;20470;-62
2023/02/28 15:10:36;;;;;;;17.10;13.40;;;8.00;53.80;;;;;;6273617;28;20545;-62
2023/02/28 15:13:43;;;;;;;15.77;12.67;;;7.80;53.70;;;;;;6273873;28;20478;-61
2023/02/28 15:16:51;;;;;;;18.40;13.53;;;7.60;54.70;;;;;;6273600;28;20957;-63
2023/02/28 15:19:55;;;;;;;17.53;12.87;;;7.50;54.70;;;;;;6273743;28;20793;-63
2023/02/28 15:22:59;;;;;;;20.67;13.67;;;7.30;55.20;;;;;;6269479;28;20478;-63
2023/02/28 15:26:05;;;;;;;14.20;12.03;;;7.30;55.80;;;;;;6274607;28;20584;-63
2023/02/28 15:29:13;;;;;;;15.83;12.17;;;7.20;55.60;;;;;;6275391;28;20471;-63
2023/02/28 15:32:39;;;;;;;15.57;12.10;;;7.30;55.80;;;;;;6274327;28;20484;-63
2023/02/28 15:35:43;;;;;;;17.50;13.20;;;7.30;55.80;;;;;;6272682;28;20485;-63
2023/02/28 15:38:53;;;;;;;15.40;12.80;;;7.30;56.10;;;;;;6275874;28;20543;-62
2023/02/28 15:42:19;;;;;;;16.07;13.40;;;7.30;55.90;;;;;;6278395;28;20470;-62
2023/02/28 15:45:37;;;;;;;16.13;12.87;;;7.30;55.60;;;;;;6278404;28;20875;-65
2023/02/28 15:48:46;;;;;;;17.90;14.27;;;7.30;55.80;;;;;;6278391;28;20531;-66
2023/02/28 15:51:51;;;;;;;17.70;14.80;;;7.20;56.20;;;;;;6278620;28;20477;-66
2023/02/28 15:54:54;;;;;;;16.50;12.43;;;7.00;57.30;;;;;;6278532;28;20977;-63
2023/02/28 15:58:02;;;;;;;19.27;13.63;;;6.90;57.70;;;;;;6278539;28;20505;-62
2023/02/28 16:01:16;;;;;;;19.57;14.17;;;6.80;57.80;;;;;;6277707;28;20462;-62
2023/02/28 16:04:21;;;;;;;18.83;14.17;;;6.90;58.10;;;;;;6277633;28;20984;-62
2023/02/28 16:07:25;;;;;;;16.77;13.83;;;6.60;58.40;;;;;;6277849;28;20991;-60
2023/02/28 16:10:30;;;;;;;18.90;13.80;;;6.60;58.70;;;;;;6276844;28;20477;-62
2023/02/28 16:13:35;;;;;;;18.60;13.87;;;6.50;58.50;;;;;;6277675;28;20462;-62